createdAt,value
2023-10-10T00:02:29.356Z,99.30
2023-10-10T00:05:49.063Z,120.90
2023-10-10T00:17:08.035Z,107.60
2023-10-10T00:20:44.364Z,92.10
2023-10-10T00:25:01.146Z,90.70
2023-10-10T00:28:41.078Z,84.00
2023-10-10T00:31:17.686Z,83.80
2023-10-10T00:41:59.579Z,85.20
2023-10-10T00:46:01.531Z,80.90
2023-10-10T00:52:42.117Z,76.80
2023-10-10T00:57:03.758Z,75.20
2023-10-10T01:00:54.521Z,76.10
2023-10-10T01:04:13.477Z,99.40
2023-10-10T01:07:31.155Z,97.00
2023-10-10T01:11:18.692Z,83.30
2023-10-10T01:15:01.325Z,86.90
2023-10-10T01:17:52.260Z,61.70
2023-10-10T01:26:17.367Z,67.90
2023-10-10T01:30:01.252Z,57.00
2023-10-10T01:33:28.066Z,55.20
2023-10-10T01:37:54.632Z,77.10
2023-10-10T01:55:36.597Z,76.30
2023-10-10T01:58:32.045Z,56.30
2023-10-10T02:01:39.443Z,59.90
2023-10-10T02:04:58.387Z,52.40
2023-10-10T02:11:36.114Z,71.10
2023-10-10T02:14:52.030Z,54.30
2023-10-10T02:26:19.862Z,98.80
2023-10-10T02:29:50.872Z,73.90
2023-10-10T02:33:32.468Z,64.50
2023-10-10T02:40:36.642Z,57.40
2023-10-10T02:44:11.529Z,70.70
2023-10-10T02:47:59.138Z,103.20
2023-10-10T03:07:09.585Z,81.80
2023-10-10T03:10:17.338Z,84.90
2023-10-10T03:14:21.449Z,63.80
2023-10-10T03:18:15.975Z,82.80
2023-10-10T03:39:44.239Z,84.70
2023-10-10T03:46:12.764Z,71.70
2023-10-10T03:49:48.852Z,88.70
2023-10-10T03:54:29.208Z,66.30
2023-10-10T03:57:48.838Z,75.30
2023-10-10T04:01:30.344Z,75.90
2023-10-10T04:05:03.495Z,73.30
2023-10-10T04:08:40.804Z,67.80
2023-10-10T04:12:44.750Z,81.90
2023-10-10T04:16:26.711Z,68.30
2023-10-10T04:20:01.233Z,68.80
2023-10-10T04:23:52.335Z,51.40
2023-10-10T04:28:23.241Z,62.80
2023-10-10T04:34:26.844Z,60.00
2023-10-10T04:35:40.635Z,55.20
2023-10-10T04:40:02.933Z,53.40
2023-10-10T04:42:57.780Z,46.30
2023-10-10T04:46:49.970Z,47.40
2023-10-10T04:50:48.303Z,63.20
2023-10-10T04:54:09.737Z,53.20
2023-10-10T04:57:22.116Z,52.30
2023-10-10T05:00:38.469Z,52.90
2023-10-10T05:04:20.438Z,58.20
2023-10-10T05:07:13.484Z,62.30
2023-10-10T05:10:07.426Z,61.00
2023-10-10T05:12:59.254Z,69.20
2023-10-10T05:16:50.785Z,79.80
2023-10-10T05:20:42.636Z,85.30
2023-10-10T05:32:05.540Z,87.70
2023-10-10T06:08:52.727Z,60.60
2023-10-10T06:16:06.119Z,65.70
2023-10-10T06:23:37.173Z,64.60
2023-10-10T06:27:20.537Z,63.10
2023-10-10T06:38:18.045Z,61.50
2023-10-10T06:54:04.319Z,48.40
2023-10-10T06:57:29.607Z,41.10
2023-10-10T07:02:09.088Z,53.60
2023-10-10T07:09:59.604Z,54.20
2023-10-10T09:01:49.286Z,24.80
2023-10-10T09:05:49.996Z,24.00
2023-10-10T09:09:46.428Z,21.40
2023-10-10T09:13:48.792Z,25.50
2023-10-10T09:20:04.687Z,26.60
2023-10-10T10:02:40.791Z,23.30
2023-10-10T10:27:24.890Z,23.30
2023-10-10T10:30:45.769Z,26.00
2023-10-10T10:35:02.806Z,26.10
2023-10-10T10:44:18.573Z,26.90
2023-10-10T10:47:26.814Z,28.90
2023-10-10T10:51:04.294Z,29.10
2023-10-10T10:55:21.105Z,28.50
2023-10-10T11:06:14.477Z,25.10
2023-10-10T11:14:29.660Z,25.60
2023-10-10T11:18:27.448Z,23.70
2023-10-10T11:22:20.836Z,23.50
2023-10-10T11:26:45.077Z,21.60
2023-10-10T11:30:09.426Z,24.80
2023-10-10T11:33:32.185Z,26.20
2023-10-10T11:41:34.646Z,27.30
2023-10-10T11:44:34.828Z,22.10
2023-10-10T11:47:32.265Z,22.80
2023-10-10T11:51:03.340Z,23.50
2023-10-10T11:53:47.602Z,24.30
2023-10-10T11:56:36.305Z,25.10
2023-10-10T12:00:04.075Z,24.50
2023-10-10T12:04:21.007Z,22.70
2023-10-10T12:08:28.738Z,25.20
2023-10-10T12:15:36.063Z,24.80
2023-10-10T12:23:43.691Z,24.10
2023-10-10T12:28:45.548Z,28.70
2023-10-10T12:31:35.037Z,27.60
2023-10-10T12:34:52.438Z,29.80
2023-10-10T12:46:51.322Z,31.70
2023-10-10T12:50:52.109Z,35.20
2023-10-10T12:54:01.743Z,32.70
2023-10-10T13:30:54.423Z,33.30
2023-10-10T13:35:58.984Z,30.60
2023-10-10T13:44:16.767Z,34.80
2023-10-10T13:48:30.687Z,35.30
2023-10-10T14:56:32.614Z,41.00
2023-10-10T14:59:32.130Z,42.40
2023-10-10T15:07:49.971Z,41.40
2023-10-10T15:15:26.731Z,42.80
2023-10-10T15:19:18.942Z,44.90
2023-10-10T15:31:02.955Z,44.80
2023-10-10T15:34:08.765Z,48.50
2023-10-10T15:38:01.726Z,45.40
2023-10-10T15:41:23.705Z,50.30
2023-10-10T15:44:06.355Z,50.40
2023-10-10T15:47:03.244Z,54.20
2023-10-10T15:49:51.670Z,48.40
2023-10-10T15:53:01.564Z,54.00
2023-10-10T15:56:27.110Z,54.40
2023-10-10T15:59:21.453Z,51.40
2023-10-10T16:02:36.674Z,49.90
2023-10-10T16:05:37.878Z,51.70
2023-10-10T16:08:53.433Z,50.10
2023-10-10T16:11:37.230Z,53.70
2023-10-10T16:14:46.135Z,56.10
2023-10-10T16:20:40.674Z,54.60
2023-10-10T16:23:28.095Z,57.30
2023-10-10T16:26:16.069Z,56.60
2023-10-10T16:29:52.318Z,55.40
2023-10-10T16:39:52.185Z,57.80
2023-10-10T16:43:00.945Z,59.50
2023-10-10T16:45:53.960Z,65.20
2023-10-10T16:48:52.039Z,66.10
2023-10-10T16:52:10.613Z,63.80
2023-10-10T16:58:44.361Z,65.30
2023-10-10T17:02:02.539Z,68.90
2023-10-10T17:04:50.835Z,63.60
2023-10-10T17:08:29.113Z,64.40
2023-10-10T17:12:31.243Z,62.80
2023-10-10T17:19:17.408Z,66.90
2023-10-10T17:22:27.385Z,74.20
2023-10-10T17:25:40.414Z,82.50
2023-10-10T17:28:29.653Z,74.30
2023-10-10T17:31:12.215Z,65.20
2023-10-10T17:34:10.461Z,65.60
2023-10-10T17:42:28.376Z,66.30
2023-10-10T17:46:54.992Z,67.60
2023-10-10T17:54:01.232Z,69.10
2023-10-10T17:57:09.506Z,69.80
2023-10-10T18:01:01.313Z,73.40
2023-10-10T18:14:07.129Z,99.10
2023-10-10T18:17:15.877Z,81.00
2023-10-10T18:20:16.652Z,80.40
2023-10-10T18:23:26.800Z,80.60
2023-10-10T18:26:27.483Z,78.00
2023-10-10T18:29:31.868Z,80.50
2023-10-10T18:32:43.477Z,80.10
2023-10-10T18:36:46.854Z,80.60
2023-10-10T18:39:20.644Z,82.40
2023-10-10T18:42:06.223Z,87.30
2023-10-10T18:45:09.567Z,80.20
2023-10-10T18:48:11.217Z,84.60
2023-10-10T18:51:27.049Z,107.90
2023-10-10T18:54:32.190Z,92.50
2023-10-10T18:57:14.605Z,83.40
2023-10-10T18:59:51.342Z,89.10
2023-10-10T19:02:34.546Z,83.10
2023-10-10T19:05:23.737Z,85.90
2023-10-10T19:08:34.562Z,82.40
2023-10-10T19:11:38.689Z,86.30
2023-10-10T19:14:15.982Z,83.30
2023-10-10T19:16:54.977Z,87.10
2023-10-10T19:19:28.362Z,85.50
2023-10-10T19:22:13.752Z,83.50
2023-10-10T19:25:24.377Z,85.60
2023-10-10T19:33:51.610Z,76.00
2023-10-10T19:37:14.340Z,89.00
2023-10-10T19:42:30.899Z,84.60
2023-10-10T19:48:17.656Z,89.10
2023-10-10T19:50:56.761Z,82.30
2023-10-10T19:53:41.034Z,88.00
2023-10-10T19:56:26.425Z,63.70
2023-10-10T19:59:07.972Z,88.30
2023-10-10T20:01:53.086Z,86.40
2023-10-10T20:08:19.075Z,77.40
2023-10-10T20:10:52.414Z,90.60
2023-10-10T20:13:31.206Z,82.60
2023-10-10T20:16:29.869Z,112.10
2023-10-10T20:19:12.472Z,100.00
2023-10-10T20:21:53.974Z,90.50
2023-10-10T20:24:37.290Z,93.60
2023-10-10T20:27:29.007Z,92.50
2023-10-10T20:30:08.309Z,88.60
2023-10-10T20:32:46.406Z,96.50
2023-10-10T20:35:40.597Z,87.80
2023-10-10T20:38:29.051Z,98.30
2023-10-10T20:41:13.856Z,94.80
2023-10-10T20:43:46.674Z,95.90
2023-10-10T20:46:32.969Z,96.60
2023-10-10T20:53:02.940Z,76.40
2023-10-10T20:56:00.465Z,83.00
2023-10-10T21:01:34.996Z,82.70
2023-10-10T21:07:08.257Z,82.60
2023-10-10T21:09:42.837Z,82.40
2023-10-10T21:12:20.417Z,82.40
2023-10-10T21:15:22.743Z,83.10
2023-10-10T21:18:00.932Z,81.60
2023-10-10T21:20:42.060Z,79.30
2023-10-10T21:23:30.475Z,85.50
2023-10-10T21:26:28.771Z,83.10
2023-10-10T21:29:11.168Z,76.00
2023-10-10T21:31:51.768Z,71.30
2023-10-10T21:34:28.013Z,79.30
2023-10-10T21:37:07.974Z,79.00
2023-10-10T21:39:49.224Z,74.10
2023-10-10T21:42:26.266Z,74.10
2023-10-10T21:45:02.552Z,72.30
2023-10-10T21:47:42.864Z,70.60
2023-10-10T21:50:17.386Z,69.60
2023-10-10T21:52:54.932Z,72.50
2023-10-10T21:55:31.635Z,66.10
2023-10-10T21:58:08.057Z,66.30
2023-10-10T22:00:47.620Z,70.80
2023-10-10T22:03:25.129Z,68.70
2023-10-10T22:08:45.537Z,63.00
2023-10-10T22:11:21.006Z,73.20
2023-10-10T22:16:35.126Z,70.70
2023-10-10T22:19:22.059Z,75.70
2023-10-10T22:21:52.647Z,75.30
2023-10-10T22:24:24.302Z,76.50
2023-10-10T22:26:57.740Z,76.80
2023-10-10T22:29:31.483Z,73.00
2023-10-10T22:32:06.912Z,68.00
2023-10-10T22:34:49.326Z,66.10
2023-10-10T22:37:21.894Z,64.80
2023-10-10T22:40:19.464Z,44.70
2023-10-10T22:42:55.970Z,63.00
2023-10-10T22:45:51.741Z,57.50
2023-10-10T22:48:23.923Z,59.30
2023-10-10T22:51:11.390Z,60.90
2023-10-10T22:54:00.345Z,52.70
2023-10-10T22:56:37.696Z,59.70
2023-10-10T22:59:14.830Z,56.30
2023-10-10T23:01:51.014Z,55.50
2023-10-10T23:04:28.891Z,55.10
2023-10-10T23:07:05.374Z,52.80
2023-10-10T23:09:39.428Z,56.10
2023-10-10T23:12:18.813Z,52.60
2023-10-10T23:14:51.886Z,53.50
2023-10-10T23:17:27.697Z,43.90
2023-10-10T23:20:05.845Z,46.80
2023-10-10T23:22:38.528Z,50.20
2023-10-10T23:25:17.548Z,53.00
2023-10-10T23:28:05.189Z,50.60
2023-10-10T23:30:45.291Z,45.00
2023-10-10T23:33:18.366Z,45.00
2023-10-10T23:35:52.338Z,43.00
2023-10-10T23:38:30.628Z,42.40
2023-10-10T23:41:03.605Z,41.40
2023-10-10T23:43:38.701Z,41.80
2023-10-10T23:46:16.043Z,37.10
2023-10-10T23:48:48.968Z,39.40
2023-10-10T23:51:25.949Z,37.70
2023-10-10T23:54:00.052Z,38.80
2023-10-10T23:56:35.586Z,36.90
2023-10-10T23:59:24.297Z,35.20
